sensor_id;sensor_type;location;lat;lon;timestamp;P1;durP1;ratioP1;P2;durP2;ratioP2
39968;SDS011;25648;47.808;19.004;2022-09-09T00:01:41;2.60;;;1.60;;
39968;SDS011;25648;47.808;19.004;2022-09-09T00:04:43;6.57;;;2.10;;
39968;SDS011;25648;47.808;19.004;2022-09-09T00:10:05;3.90;;;1.60;;
39968;SDS011;25648;47.808;19.004;2022-09-09T00:13:01;5.70;;;1.83;;
39968;SDS011;25648;47.808;19.004;2022-09-09T00:15:57;2.55;;;1.60;;
39968;SDS011;25648;47.808;19.004;2022-09-09T00:18:29;3.75;;;1.70;;
39968;SDS011;25648;47.808;19.004;2022-09-09T00:21:05;3.45;;;1.60;;
39968;SDS011;25648;47.808;19.004;2022-09-09T00:23:44;2.92;;;1.60;;
39968;SDS011;25648;47.808;19.004;2022-09-09T00:26:27;3.83;;;1.80;;
39968;SDS011;25648;47.808;19.004;2022-09-09T00:31:55;3.85;;;1.60;;
39968;SDS011;25648;47.808;19.004;2022-09-09T00:34:29;3.85;;;1.60;;
39968;SDS011;25648;47.808;19.004;2022-09-09T00:36:56;3.60;;;1.90;;
39968;SDS011;25648;47.808;19.004;2022-09-09T00:39:32;3.03;;;1.70;;
39968;SDS011;25648;47.808;19.004;2022-09-09T00:44:32;4.35;;;1.70;;
39968;SDS011;25648;47.808;19.004;2022-09-09T00:57:35;3.08;;;1.40;;
39968;SDS011;25648;47.808;19.004;2022-09-09T01:02:56;2.60;;;1.50;;
39968;SDS011;25648;47.808;19.004;2022-09-09T01:05:54;4.68;;;1.50;;
39968;SDS011;25648;47.808;19.004;2022-09-09T01:10:55;2.75;;;1.55;;
39968;SDS011;25648;47.808;19.004;2022-09-09T01:13:25;3.78;;;1.60;;
39968;SDS011;25648;47.808;19.004;2022-09-09T01:15:55;4.38;;;1.60;;
39968;SDS011;25648;47.808;19.004;2022-09-09T01:18:26;4.80;;;1.58;;
39968;SDS011;25648;47.808;19.004;2022-09-09T01:21:02;5.07;;;1.48;;
39968;SDS011;25648;47.808;19.004;2022-09-09T01:28:59;2.40;;;1.40;;
39968;SDS011;25648;47.808;19.004;2022-09-09T01:31:38;3.50;;;1.50;;
39968;SDS011;25648;47.808;19.004;2022-09-09T01:34:10;2.95;;;1.73;;
39968;SDS011;25648;47.808;19.004;2022-09-09T01:36:44;2.47;;;1.50;;
39968;SDS011;25648;47.808;19.004;2022-09-09T01:39:18;2.97;;;1.52;;
39968;SDS011;25648;47.808;19.004;2022-09-09T01:41:44;3.72;;;1.70;;
39968;SDS011;25648;47.808;19.004;2022-09-09T01:44:10;6.32;;;1.67;;
39968;SDS011;25648;47.808;19.004;2022-09-09T01:46:37;3.25;;;1.90;;
39968;SDS011;25648;47.808;19.004;2022-09-09T01:49:03;3.38;;;1.88;;
39968;SDS011;25648;47.808;19.004;2022-09-09T01:51:32;2.80;;;1.83;;
39968;SDS011;25648;47.808;19.004;2022-09-09T01:53:58;2.45;;;1.55;;
39968;SDS011;25648;47.808;19.004;2022-09-09T02:04:38;3.78;;;1.80;;
39968;SDS011;25648;47.808;19.004;2022-09-09T02:07:42;3.15;;;1.70;;
39968;SDS011;25648;47.808;19.004;2022-09-09T02:10:24;4.88;;;1.90;;
39968;SDS011;25648;47.808;19.004;2022-09-09T02:13:16;2.83;;;1.70;;
39968;SDS011;25648;47.808;19.004;2022-09-09T02:18:13;3.65;;;1.80;;
39968;SDS011;25648;47.808;19.004;2022-09-09T02:20:42;2.90;;;2.05;;
39968;SDS011;25648;47.808;19.004;2022-09-09T02:23:10;2.45;;;1.60;;
39968;SDS011;25648;47.808;19.004;2022-09-09T02:25:37;2.80;;;1.83;;
39968;SDS011;25648;47.808;19.004;2022-09-09T02:28:06;4.13;;;1.90;;
39968;SDS011;25648;47.808;19.004;2022-09-09T02:30:35;2.70;;;1.67;;
39968;SDS011;25648;47.808;19.004;2022-09-09T02:33:03;4.40;;;1.90;;
39968;SDS011;25648;47.808;19.004;2022-09-09T02:35:32;4.28;;;1.95;;
39968;SDS011;25648;47.808;19.004;2022-09-09T02:38:04;2.70;;;1.90;;
39968;SDS011;25648;47.808;19.004;2022-09-09T02:40:35;4.57;;;1.77;;
39968;SDS011;25648;47.808;19.004;2022-09-09T02:43:01;5.38;;;2.00;;
39968;SDS011;25648;47.808;19.004;2022-09-09T02:45:31;3.10;;;1.90;;
39968;SDS011;25648;47.808;19.004;2022-09-09T02:48:29;3.63;;;1.92;;
39968;SDS011;25648;47.808;19.004;2022-09-09T02:53:46;3.65;;;1.98;;
39968;SDS011;25648;47.808;19.004;2022-09-09T02:56:35;3.03;;;1.90;;
39968;SDS011;25648;47.808;19.004;2022-09-09T02:59:07;2.85;;;1.80;;
39968;SDS011;25648;47.808;19.004;2022-09-09T03:01:33;2.83;;;1.90;;
39968;SDS011;25648;47.808;19.004;2022-09-09T03:04:03;3.25;;;1.80;;
39968;SDS011;25648;47.808;19.004;2022-09-09T03:06:33;3.53;;;2.10;;
39968;SDS011;25648;47.808;19.004;2022-09-09T03:09:00;5.25;;;2.13;;
39968;SDS011;25648;47.808;19.004;2022-09-09T03:11:27;6.15;;;2.42;;
39968;SDS011;25648;47.808;19.004;2022-09-09T03:13:53;3.10;;;1.95;;
39968;SDS011;25648;47.808;19.004;2022-09-09T03:16:21;3.00;;;1.98;;
39968;SDS011;25648;47.808;19.004;2022-09-09T03:18:47;4.07;;;2.17;;
39968;SDS011;25648;47.808;19.004;2022-09-09T03:21:14;4.25;;;1.88;;
39968;SDS011;25648;47.808;19.004;2022-09-09T03:23:40;2.90;;;1.90;;
39968;SDS011;25648;47.808;19.004;2022-09-09T03:26:06;4.50;;;1.90;;
39968;SDS011;25648;47.808;19.004;2022-09-09T03:28:32;3.25;;;2.00;;
39968;SDS011;25648;47.808;19.004;2022-09-09T03:30:59;4.93;;;2.10;;
39968;SDS011;25648;47.808;19.004;2022-09-09T03:33:25;3.53;;;1.85;;
39968;SDS011;25648;47.808;19.004;2022-09-09T03:35:51;3.88;;;2.00;;
39968;SDS011;25648;47.808;19.004;2022-09-09T03:38:22;4.53;;;1.95;;
39968;SDS011;25648;47.808;19.004;2022-09-09T03:40:51;3.08;;;2.00;;
39968;SDS011;25648;47.808;19.004;2022-09-09T03:43:22;3.20;;;2.00;;
39968;SDS011;25648;47.808;19.004;2022-09-09T03:45:49;3.88;;;1.75;;
39968;SDS011;25648;47.808;19.004;2022-09-09T03:48:15;3.05;;;2.10;;
39968;SDS011;25648;47.808;19.004;2022-09-09T03:50:47;3.22;;;1.90;;
39968;SDS011;25648;47.808;19.004;2022-09-09T03:53:15;3.35;;;1.60;;
39968;SDS011;25648;47.808;19.004;2022-09-09T03:55:49;3.88;;;2.10;;
39968;SDS011;25648;47.808;19.004;2022-09-09T03:58:19;3.13;;;1.85;;
39968;SDS011;25648;47.808;19.004;2022-09-09T04:01:00;3.38;;;2.00;;
39968;SDS011;25648;47.808;19.004;2022-09-09T04:03:28;3.08;;;1.75;;
39968;SDS011;25648;47.808;19.004;2022-09-09T04:06:56;3.85;;;1.90;;
39968;SDS011;25648;47.808;19.004;2022-09-09T04:09:22;5.00;;;1.85;;
39968;SDS011;25648;47.808;19.004;2022-09-09T04:11:48;3.00;;;1.90;;
39968;SDS011;25648;47.808;19.004;2022-09-09T04:14:14;3.65;;;1.80;;
39968;SDS011;25648;47.808;19.004;2022-09-09T04:16:40;3.20;;;1.92;;
39968;SDS011;25648;47.808;19.004;2022-09-09T04:19:09;4.25;;;1.83;;
39968;SDS011;25648;47.808;19.004;2022-09-09T04:21:37;4.82;;;2.00;;
39968;SDS011;25648;47.808;19.004;2022-09-09T04:24:05;3.42;;;1.77;;
39968;SDS011;25648;47.808;19.004;2022-09-09T04:26:31;4.78;;;2.03;;
39968;SDS011;25648;47.808;19.004;2022-09-09T04:28:58;3.65;;;1.90;;
39968;SDS011;25648;47.808;19.004;2022-09-09T04:31:23;3.80;;;2.00;;
39968;SDS011;25648;47.808;19.004;2022-09-09T04:33:52;3.72;;;1.90;;
39968;SDS011;25648;47.808;19.004;2022-09-09T04:36:18;3.17;;;1.95;;
39968;SDS011;25648;47.808;19.004;2022-09-09T04:38:45;4.03;;;2.00;;
39968;SDS011;25648;47.808;19.004;2022-09-09T04:41:11;3.35;;;2.00;;
39968;SDS011;25648;47.808;19.004;2022-09-09T04:43:37;4.57;;;2.00;;
39968;SDS011;25648;47.808;19.004;2022-09-09T04:46:04;4.15;;;2.00;;
39968;SDS011;25648;47.808;19.004;2022-09-09T04:48:30;3.10;;;2.00;;
39968;SDS011;25648;47.808;19.004;2022-09-09T04:53:26;5.55;;;2.30;;
39968;SDS011;25648;47.808;19.004;2022-09-09T04:56:00;3.10;;;1.80;;
39968;SDS011;25648;47.808;19.004;2022-09-09T04:58:29;3.83;;;2.10;;
39968;SDS011;25648;47.808;19.004;2022-09-09T05:01:02;2.90;;;1.75;;
39968;SDS011;25648;47.808;19.004;2022-09-09T05:03:31;2.88;;;1.98;;
39968;SDS011;25648;47.808;19.004;2022-09-09T05:06:04;3.67;;;2.03;;
39968;SDS011;25648;47.808;19.004;2022-09-09T05:08:31;4.18;;;1.75;;
39968;SDS011;25648;47.808;19.004;2022-09-09T05:10:57;4.13;;;1.90;;
39968;SDS011;25648;47.808;19.004;2022-09-09T05:13:24;3.92;;;1.95;;
39968;SDS011;25648;47.808;19.004;2022-09-09T05:15:51;4.35;;;2.00;;
39968;SDS011;25648;47.808;19.004;2022-09-09T05:18:18;3.25;;;1.92;;
39968;SDS011;25648;47.808;19.004;2022-09-09T05:20:43;3.58;;;1.85;;
39968;SDS011;25648;47.808;19.004;2022-09-09T05:23:09;4.45;;;1.80;;
39968;SDS011;25648;47.808;19.004;2022-09-09T05:25:38;6.40;;;2.17;;
39968;SDS011;25648;47.808;19.004;2022-09-09T05:28:05;3.20;;;2.00;;
39968;SDS011;25648;47.808;19.004;2022-09-09T05:30:32;6.03;;;2.15;;
39968;SDS011;25648;47.808;19.004;2022-09-09T05:35:08;4.40;;;1.98;;
39968;SDS011;25648;47.808;19.004;2022-09-09T05:37:35;5.97;;;2.30;;
39968;SDS011;25648;47.808;19.004;2022-09-09T05:40:01;5.35;;;2.53;;
39968;SDS011;25648;47.808;19.004;2022-09-09T05:42:29;4.55;;;1.95;;
39968;SDS011;25648;47.808;19.004;2022-09-09T05:44:56;4.95;;;3.00;;
39968;SDS011;25648;47.808;19.004;2022-09-09T05:47:23;6.75;;;3.70;;
39968;SDS011;25648;47.808;19.004;2022-09-09T05:49:49;5.30;;;2.20;;
39968;SDS011;25648;47.808;19.004;2022-09-09T05:52:14;3.60;;;2.00;;
39968;SDS011;25648;47.808;19.004;2022-09-09T05:54:42;4.57;;;2.20;;
39968;SDS011;25648;47.808;19.004;2022-09-09T05:57:08;4.35;;;2.30;;
39968;SDS011;25648;47.808;19.004;2022-09-09T05:59:34;5.20;;;2.50;;
39968;SDS011;25648;47.808;19.004;2022-09-09T06:02:00;4.78;;;2.33;;
39968;SDS011;25648;47.808;19.004;2022-09-09T06:04:25;4.35;;;2.22;;
39968;SDS011;25648;47.808;19.004;2022-09-09T06:06:51;3.78;;;2.22;;
39968;SDS011;25648;47.808;19.004;2022-09-09T06:09:17;3.53;;;2.20;;
39968;SDS011;25648;47.808;19.004;2022-09-09T06:11:42;3.20;;;2.13;;
39968;SDS011;25648;47.808;19.004;2022-09-09T06:14:09;5.47;;;2.20;;
39968;SDS011;25648;47.808;19.004;2022-09-09T06:16:35;3.42;;;2.20;;
39968;SDS011;25648;47.808;19.004;2022-09-09T06:19:02;3.78;;;2.30;;
39968;SDS011;25648;47.808;19.004;2022-09-09T06:21:32;3.47;;;2.00;;
39968;SDS011;25648;47.808;19.004;2022-09-09T06:24:02;5.10;;;2.70;;
39968;SDS011;25648;47.808;19.004;2022-09-09T06:26:35;5.35;;;2.60;;
39968;SDS011;25648;47.808;19.004;2022-09-09T06:29:03;4.05;;;2.28;;
39968;SDS011;25648;47.808;19.004;2022-09-09T06:31:29;3.63;;;2.22;;
39968;SDS011;25648;47.808;19.004;2022-09-09T06:33:57;5.05;;;2.67;;
39968;SDS011;25648;47.808;19.004;2022-09-09T06:36:24;5.10;;;2.42;;
39968;SDS011;25648;47.808;19.004;2022-09-09T06:38:51;3.00;;;2.03;;
39968;SDS011;25648;47.808;19.004;2022-09-09T06:41:18;3.28;;;2.30;;
39968;SDS011;25648;47.808;19.004;2022-09-09T06:43:48;4.50;;;2.10;;
39968;SDS011;25648;47.808;19.004;2022-09-09T06:46:15;4.30;;;2.60;;
39968;SDS011;25648;47.808;19.004;2022-09-09T06:48:46;3.58;;;1.95;;
39968;SDS011;25648;47.808;19.004;2022-09-09T06:51:16;4.45;;;2.25;;
39968;SDS011;25648;47.808;19.004;2022-09-09T06:53:46;4.35;;;2.22;;
39968;SDS011;25648;47.808;19.004;2022-09-09T06:56:18;4.20;;;2.20;;
39968;SDS011;25648;47.808;19.004;2022-09-09T06:58:58;3.35;;;2.20;;
39968;SDS011;25648;47.808;19.004;2022-09-09T07:04:24;4.00;;;2.20;;
39968;SDS011;25648;47.808;19.004;2022-09-09T07:06:56;4.00;;;2.30;;
39968;SDS011;25648;47.808;19.004;2022-09-09T07:10:12;3.30;;;2.50;;
39968;SDS011;25648;47.808;19.004;2022-09-09T07:12:53;3.92;;;2.10;;
39968;SDS011;25648;47.808;19.004;2022-09-09T07:15:19;3.67;;;2.22;;
39968;SDS011;25648;47.808;19.004;2022-09-09T07:17:46;3.72;;;2.40;;
39968;SDS011;25648;47.808;19.004;2022-09-09T07:20:13;3.88;;;2.40;;
39968;SDS011;25648;47.808;19.004;2022-09-09T07:22:39;4.40;;;2.30;;
39968;SDS011;25648;47.808;19.004;2022-09-09T07:25:06;3.65;;;2.28;;
39968;SDS011;25648;47.808;19.004;2022-09-09T07:27:36;3.35;;;2.38;;
39968;SDS011;25648;47.808;19.004;2022-09-09T07:30:02;3.03;;;1.88;;
39968;SDS011;25648;47.808;19.004;2022-09-09T07:32:29;4.72;;;2.40;;
39968;SDS011;25648;47.808;19.004;2022-09-09T07:34:55;5.82;;;2.13;;
39968;SDS011;25648;47.808;19.004;2022-09-09T07:37:23;3.20;;;2.25;;
39968;SDS011;25648;47.808;19.004;2022-09-09T07:39:49;3.30;;;1.90;;
39968;SDS011;25648;47.808;19.004;2022-09-09T07:42:16;2.70;;;1.80;;
39968;SDS011;25648;47.808;19.004;2022-09-09T07:44:42;4.18;;;2.10;;
39968;SDS011;25648;47.808;19.004;2022-09-09T07:47:07;3.15;;;2.20;;
39968;SDS011;25648;47.808;19.004;2022-09-09T07:49:33;3.10;;;1.90;;
39968;SDS011;25648;47.808;19.004;2022-09-09T07:52:00;3.63;;;2.10;;
39968;SDS011;25648;47.808;19.004;2022-09-09T07:54:27;3.83;;;2.10;;
39968;SDS011;25648;47.808;19.004;2022-09-09T07:56:52;3.35;;;2.00;;
39968;SDS011;25648;47.808;19.004;2022-09-09T07:59:18;3.83;;;2.10;;
39968;SDS011;25648;47.808;19.004;2022-09-09T08:01:50;3.15;;;1.80;;
39968;SDS011;25648;47.808;19.004;2022-09-09T08:04:20;3.85;;;2.00;;
39968;SDS011;25648;47.808;19.004;2022-09-09T08:06:50;3.67;;;1.80;;
39968;SDS011;25648;47.808;19.004;2022-09-09T08:09:18;2.88;;;2.00;;
39968;SDS011;25648;47.808;19.004;2022-09-09T08:11:45;3.45;;;1.98;;
39968;SDS011;25648;47.808;19.004;2022-09-09T08:14:12;6.13;;;2.00;;
39968;SDS011;25648;47.808;19.004;2022-09-09T08:16:40;3.80;;;1.90;;
39968;SDS011;25648;47.808;19.004;2022-09-09T08:19:11;3.28;;;2.03;;
39968;SDS011;25648;47.808;19.004;2022-09-09T08:21:38;4.30;;;2.03;;
39968;SDS011;25648;47.808;19.004;2022-09-09T08:24:05;3.15;;;1.90;;
39968;SDS011;25648;47.808;19.004;2022-09-09T08:26:33;3.00;;;2.08;;
39968;SDS011;25648;47.808;19.004;2022-09-09T08:29:03;4.20;;;1.90;;
39968;SDS011;25648;47.808;19.004;2022-09-09T08:31:34;2.83;;;2.08;;
39968;SDS011;25648;47.808;19.004;2022-09-09T08:34:02;3.67;;;1.83;;
39968;SDS011;25648;47.808;19.004;2022-09-09T08:36:30;3.80;;;1.90;;
39968;SDS011;25648;47.808;19.004;2022-09-09T08:39:01;2.90;;;1.90;;
39968;SDS011;25648;47.808;19.004;2022-09-09T08:44:22;3.75;;;2.08;;
39968;SDS011;25648;47.808;19.004;2022-09-09T08:55:50;3.90;;;2.00;;
39968;SDS011;25648;47.808;19.004;2022-09-09T08:58:21;2.83;;;1.80;;
39968;SDS011;25648;47.808;19.004;2022-09-09T09:11:55;3.75;;;1.90;;
39968;SDS011;25648;47.808;19.004;2022-09-09T09:19:45;3.78;;;2.17;;
39968;SDS011;25648;47.808;19.004;2022-09-09T09:22:17;3.00;;;1.90;;
39968;SDS011;25648;47.808;19.004;2022-09-09T09:29:58;3.35;;;2.00;;
39968;SDS011;25648;47.808;19.004;2022-09-09T09:32:26;3.55;;;2.20;;
39968;SDS011;25648;47.808;19.004;2022-09-09T09:34:56;3.63;;;2.08;;
39968;SDS011;25648;47.808;19.004;2022-09-09T09:37:26;3.17;;;2.10;;
39968;SDS011;25648;47.808;19.004;2022-09-09T09:40:07;3.05;;;2.10;;
39968;SDS011;25648;47.808;19.004;2022-09-09T09:42:34;3.55;;;1.83;;
39968;SDS011;25648;47.808;19.004;2022-09-09T09:45:16;3.08;;;1.98;;
39968;SDS011;25648;47.808;19.004;2022-09-09T09:47:57;3.00;;;2.10;;
39968;SDS011;25648;47.808;19.004;2022-09-09T09:50:28;3.20;;;2.08;;
39968;SDS011;25648;47.808;19.004;2022-09-09T09:52:55;3.13;;;2.05;;
39968;SDS011;25648;47.808;19.004;2022-09-09T09:55:22;3.45;;;2.10;;
39968;SDS011;25648;47.808;19.004;2022-09-09T09:57:49;2.90;;;1.90;;
39968;SDS011;25648;47.808;19.004;2022-09-09T10:00:16;15.27;;;14.07;;
39968;SDS011;25648;47.808;19.004;2022-09-09T10:02:44;3.92;;;2.00;;
39968;SDS011;25648;47.808;19.004;2022-09-09T10:05:27;4.32;;;2.00;;
39968;SDS011;25648;47.808;19.004;2022-09-09T10:13:09;3.53;;;1.75;;
39968;SDS011;25648;47.808;19.004;2022-09-09T10:30:00;2.60;;;1.60;;
39968;SDS011;25648;47.808;19.004;2022-09-09T10:32:29;2.80;;;1.73;;
39968;SDS011;25648;47.808;19.004;2022-09-09T10:35:13;3.13;;;1.83;;
39968;SDS011;25648;47.808;19.004;2022-09-09T10:38:17;3.13;;;1.60;;
39968;SDS011;25648;47.808;19.004;2022-09-09T10:40:48;2.90;;;1.80;;
39968;SDS011;25648;47.808;19.004;2022-09-09T10:46:20;3.10;;;1.70;;
39968;SDS011;25648;47.808;19.004;2022-09-09T10:52:09;2.85;;;1.70;;
39968;SDS011;25648;47.808;19.004;2022-09-09T10:54:54;2.70;;;1.60;;
39968;SDS011;25648;47.808;19.004;2022-09-09T10:57:43;3.75;;;1.98;;
39968;SDS011;25648;47.808;19.004;2022-09-09T11:00:23;3.22;;;1.70;;
39968;SDS011;25648;47.808;19.004;2022-09-09T11:03:04;3.92;;;1.80;;
39968;SDS011;25648;47.808;19.004;2022-09-09T11:08:17;3.08;;;1.83;;
39968;SDS011;25648;47.808;19.004;2022-09-09T11:13:42;2.38;;;1.60;;
39968;SDS011;25648;47.808;19.004;2022-09-09T11:16:33;2.70;;;1.50;;
39968;SDS011;25648;47.808;19.004;2022-09-09T11:19:12;3.97;;;1.60;;
39968;SDS011;25648;47.808;19.004;2022-09-09T11:21:45;2.30;;;1.50;;
39968;SDS011;25648;47.808;19.004;2022-09-09T11:27:00;2.40;;;1.40;;
39968;SDS011;25648;47.808;19.004;2022-09-09T11:32:08;3.00;;;1.55;;
39968;SDS011;25648;47.808;19.004;2022-09-09T11:42:35;2.28;;;1.35;;
39968;SDS011;25648;47.808;19.004;2022-09-09T11:45:11;3.58;;;1.50;;
39968;SDS011;25648;47.808;19.004;2022-09-09T11:47:58;3.60;;;1.52;;
39968;SDS011;25648;47.808;19.004;2022-09-09T11:55:38;2.90;;;1.50;;
39968;SDS011;25648;47.808;19.004;2022-09-09T11:58:05;3.35;;;1.40;;
39968;SDS011;25648;47.808;19.004;2022-09-09T12:00:47;2.70;;;1.42;;
39968;SDS011;25648;47.808;19.004;2022-09-09T12:09:09;3.03;;;1.40;;
39968;SDS011;25648;47.808;19.004;2022-09-09T12:11:46;2.90;;;1.50;;
39968;SDS011;25648;47.808;19.004;2022-09-09T12:14:22;2.30;;;1.38;;
39968;SDS011;25648;47.808;19.004;2022-09-09T12:19:40;2.60;;;1.45;;
39968;SDS011;25648;47.808;19.004;2022-09-09T12:24:41;3.00;;;1.50;;
39968;SDS011;25648;47.808;19.004;2022-09-09T12:29:50;2.60;;;1.50;;
39968;SDS011;25648;47.808;19.004;2022-09-09T12:32:27;4.27;;;1.57;;
39968;SDS011;25648;47.808;19.004;2022-09-09T12:35:10;6.43;;;1.45;;
39968;SDS011;25648;47.808;19.004;2022-09-09T12:37:39;2.92;;;1.35;;
39968;SDS011;25648;47.808;19.004;2022-09-09T12:40:22;2.75;;;1.50;;
39968;SDS011;25648;47.808;19.004;2022-09-09T12:42:57;3.67;;;1.42;;
39968;SDS011;25648;47.808;19.004;2022-09-09T12:45:27;2.20;;;1.35;;
39968;SDS011;25648;47.808;19.004;2022-09-09T12:50:50;3.47;;;1.40;;
39968;SDS011;25648;47.808;19.004;2022-09-09T12:55:51;2.50;;;1.50;;
39968;SDS011;25648;47.808;19.004;2022-09-09T12:58:19;4.60;;;1.40;;
39968;SDS011;25648;47.808;19.004;2022-09-09T13:00:49;3.45;;;1.45;;
39968;SDS011;25648;47.808;19.004;2022-09-09T13:03:21;2.78;;;1.52;;
39968;SDS011;25648;47.808;19.004;2022-09-09T13:05:47;2.53;;;1.40;;
39968;SDS011;25648;47.808;19.004;2022-09-09T13:08:15;4.18;;;1.45;;
39968;SDS011;25648;47.808;19.004;2022-09-09T13:10:53;2.83;;;1.40;;
39968;SDS011;25648;47.808;19.004;2022-09-09T13:13:50;3.00;;;1.63;;
39968;SDS011;25648;47.808;19.004;2022-09-09T13:16:22;4.75;;;1.65;;
39968;SDS011;25648;47.808;19.004;2022-09-09T13:18:51;2.55;;;1.50;;
39968;SDS011;25648;47.808;19.004;2022-09-09T13:21:18;2.83;;;1.30;;
39968;SDS011;25648;47.808;19.004;2022-09-09T13:23:48;2.95;;;1.30;;
39968;SDS011;25648;47.808;19.004;2022-09-09T13:28:51;4.80;;;1.40;;
39968;SDS011;25648;47.808;19.004;2022-09-09T13:31:32;2.15;;;1.38;;
39968;SDS011;25648;47.808;19.004;2022-09-09T13:34:10;2.13;;;1.20;;
39968;SDS011;25648;47.808;19.004;2022-09-09T13:36:38;2.88;;;1.38;;
39968;SDS011;25648;47.808;19.004;2022-09-09T13:39:13;2.92;;;1.38;;
39968;SDS011;25648;47.808;19.004;2022-09-09T13:41:43;2.35;;;1.27;;
39968;SDS011;25648;47.808;19.004;2022-09-09T13:44:20;5.18;;;1.42;;
39968;SDS011;25648;47.808;19.004;2022-09-09T13:47:01;2.92;;;1.52;;
39968;SDS011;25648;47.808;19.004;2022-09-09T13:49:48;3.88;;;1.70;;
39968;SDS011;25648;47.808;19.004;2022-09-09T13:52:15;3.38;;;1.52;;
39968;SDS011;25648;47.808;19.004;2022-09-09T13:54:47;2.33;;;1.40;;
39968;SDS011;25648;47.808;19.004;2022-09-09T13:57:18;2.90;;;1.33;;
39968;SDS011;25648;47.808;19.004;2022-09-09T13:59:50;2.58;;;1.20;;
39968;SDS011;25648;47.808;19.004;2022-09-09T14:02:17;3.88;;;1.50;;
39968;SDS011;25648;47.808;19.004;2022-09-09T14:04:44;3.45;;;1.50;;
39968;SDS011;25648;47.808;19.004;2022-09-09T14:07:13;2.53;;;1.33;;
39968;SDS011;25648;47.808;19.004;2022-09-09T14:09:41;2.92;;;1.40;;
39968;SDS011;25648;47.808;19.004;2022-09-09T14:12:10;2.92;;;1.42;;
39968;SDS011;25648;47.808;19.004;2022-09-09T14:14:36;3.13;;;1.30;;
39968;SDS011;25648;47.808;19.004;2022-09-09T14:17:02;2.58;;;1.30;;
39968;SDS011;25648;47.808;19.004;2022-09-09T14:19:29;2.97;;;1.35;;
39968;SDS011;25648;47.808;19.004;2022-09-09T14:21:56;2.70;;;1.30;;
39968;SDS011;25648;47.808;19.004;2022-09-09T14:24:22;3.30;;;1.30;;
39968;SDS011;25648;47.808;19.004;2022-09-09T14:26:48;3.65;;;1.30;;
39968;SDS011;25648;47.808;19.004;2022-09-09T14:29:14;2.10;;;1.20;;
39968;SDS011;25648;47.808;19.004;2022-09-09T14:31:39;2.35;;;1.20;;
39968;SDS011;25648;47.808;19.004;2022-09-09T14:34:05;2.40;;;1.33;;
39968;SDS011;25648;47.808;19.004;2022-09-09T14:36:31;3.78;;;1.30;;
39968;SDS011;25648;47.808;19.004;2022-09-09T14:38:57;2.38;;;1.40;;
39968;SDS011;25648;47.808;19.004;2022-09-09T14:41:23;2.10;;;1.27;;
39968;SDS011;25648;47.808;19.004;2022-09-09T14:43:50;2.97;;;1.30;;
39968;SDS011;25648;47.808;19.004;2022-09-09T14:46:17;2.40;;;1.30;;
39968;SDS011;25648;47.808;19.004;2022-09-09T14:48:44;4.70;;;1.50;;
39968;SDS011;25648;47.808;19.004;2022-09-09T14:51:23;2.30;;;1.40;;
39968;SDS011;25648;47.808;19.004;2022-09-09T14:53:53;3.58;;;1.30;;
39968;SDS011;25648;47.808;19.004;2022-09-09T14:56:21;3.88;;;1.50;;
39968;SDS011;25648;47.808;19.004;2022-09-09T14:58:49;3.50;;;1.50;;
39968;SDS011;25648;47.808;19.004;2022-09-09T15:01:16;7.20;;;1.83;;
39968;SDS011;25648;47.808;19.004;2022-09-09T15:03:48;7.55;;;1.80;;
39968;SDS011;25648;47.808;19.004;2022-09-09T15:06:16;3.17;;;1.60;;
39968;SDS011;25648;47.808;19.004;2022-09-09T15:08:42;11.90;;;1.80;;
39968;SDS011;25648;47.808;19.004;2022-09-09T15:11:09;5.15;;;1.50;;
39968;SDS011;25648;47.808;19.004;2022-09-09T15:13:37;3.13;;;1.50;;
39968;SDS011;25648;47.808;19.004;2022-09-09T15:16:12;5.72;;;1.60;;
39968;SDS011;25648;47.808;19.004;2022-09-09T15:18:39;5.32;;;2.00;;
39968;SDS011;25648;47.808;19.004;2022-09-09T15:21:08;8.13;;;1.90;;
39968;SDS011;25648;47.808;19.004;2022-09-09T15:23:35;2.42;;;1.60;;
39968;SDS011;25648;47.808;19.004;2022-09-09T15:26:01;4.30;;;1.80;;
39968;SDS011;25648;47.808;19.004;2022-09-09T15:28:28;3.42;;;2.05;;
39968;SDS011;25648;47.808;19.004;2022-09-09T15:30:54;2.88;;;1.85;;
39968;SDS011;25648;47.808;19.004;2022-09-09T15:33:21;3.15;;;1.70;;
39968;SDS011;25648;47.808;19.004;2022-09-09T15:35:48;4.25;;;1.90;;
39968;SDS011;25648;47.808;19.004;2022-09-09T15:38:15;4.03;;;1.73;;
39968;SDS011;25648;47.808;19.004;2022-09-09T15:40:42;6.15;;;1.75;;
39968;SDS011;25648;47.808;19.004;2022-09-09T15:43:08;3.22;;;1.55;;
39968;SDS011;25648;47.808;19.004;2022-09-09T15:45:35;3.10;;;1.60;;
39968;SDS011;25648;47.808;19.004;2022-09-09T15:48:02;6.15;;;2.00;;
39968;SDS011;25648;47.808;19.004;2022-09-09T15:50:29;5.20;;;1.67;;
39968;SDS011;25648;47.808;19.004;2022-09-09T15:52:58;23.25;;;2.53;;
39968;SDS011;25648;47.808;19.004;2022-09-09T15:55:25;49.00;;;5.40;;
39968;SDS011;25648;47.808;19.004;2022-09-09T15:57:50;26.38;;;3.50;;
39968;SDS011;25648;47.808;19.004;2022-09-09T16:00:20;26.45;;;3.08;;
39968;SDS011;25648;47.808;19.004;2022-09-09T16:02:47;6.63;;;2.00;;
39968;SDS011;25648;47.808;19.004;2022-09-09T16:05:13;12.30;;;2.42;;
39968;SDS011;25648;47.808;19.004;2022-09-09T16:07:39;11.88;;;2.80;;
39968;SDS011;25648;47.808;19.004;2022-09-09T16:10:07;12.65;;;2.08;;
39968;SDS011;25648;47.808;19.004;2022-09-09T16:12:33;6.55;;;1.83;;
39968;SDS011;25648;47.808;19.004;2022-09-09T16:14:59;6.82;;;1.92;;
39968;SDS011;25648;47.808;19.004;2022-09-09T16:17:25;6.15;;;1.83;;
39968;SDS011;25648;47.808;19.004;2022-09-09T16:19:52;5.60;;;1.90;;
39968;SDS011;25648;47.808;19.004;2022-09-09T16:22:19;9.07;;;2.22;;
39968;SDS011;25648;47.808;19.004;2022-09-09T16:24:45;21.27;;;3.13;;
39968;SDS011;25648;47.808;19.004;2022-09-09T16:27:11;37.00;;;4.28;;
39968;SDS011;25648;47.808;19.004;2022-09-09T16:29:36;16.05;;;2.42;;
39968;SDS011;25648;47.808;19.004;2022-09-09T16:32:02;5.22;;;1.80;;
39968;SDS011;25648;47.808;19.004;2022-09-09T16:34:28;17.35;;;2.55;;
39968;SDS011;25648;47.808;19.004;2022-09-09T16:36:54;11.07;;;2.10;;
39968;SDS011;25648;47.808;19.004;2022-09-09T16:39:20;16.45;;;2.95;;
39968;SDS011;25648;47.808;19.004;2022-09-09T16:41:46;11.05;;;2.47;;
39968;SDS011;25648;47.808;19.004;2022-09-09T16:44:13;9.32;;;2.47;;
39968;SDS011;25648;47.808;19.004;2022-09-09T16:46:42;6.82;;;1.90;;
39968;SDS011;25648;47.808;19.004;2022-09-09T16:49:09;7.50;;;2.03;;
39968;SDS011;25648;47.808;19.004;2022-09-09T16:51:39;6.13;;;2.70;;
39968;SDS011;25648;47.808;19.004;2022-09-09T16:54:07;9.90;;;2.63;;
39968;SDS011;25648;47.808;19.004;2022-09-09T16:56:35;3.58;;;1.98;;
39968;SDS011;25648;47.808;19.004;2022-09-09T16:59:03;6.97;;;2.28;;
39968;SDS011;25648;47.808;19.004;2022-09-09T17:01:43;6.20;;;2.50;;
39968;SDS011;25648;47.808;19.004;2022-09-09T17:04:14;16.02;;;2.90;;
39968;SDS011;25648;47.808;19.004;2022-09-09T17:06:45;5.88;;;2.13;;
39968;SDS011;25648;47.808;19.004;2022-09-09T17:09:14;18.23;;;3.35;;
39968;SDS011;25648;47.808;19.004;2022-09-09T17:11:41;13.30;;;2.90;;
39968;SDS011;25648;47.808;19.004;2022-09-09T17:14:07;7.30;;;2.58;;
39968;SDS011;25648;47.808;19.004;2022-09-09T17:16:36;4.03;;;2.30;;
39968;SDS011;25648;47.808;19.004;2022-09-09T17:19:04;19.30;;;4.00;;
39968;SDS011;25648;47.808;19.004;2022-09-09T17:21:30;6.55;;;2.70;;
39968;SDS011;25648;47.808;19.004;2022-09-09T17:23:57;6.72;;;2.38;;
39968;SDS011;25648;47.808;19.004;2022-09-09T17:26:25;11.50;;;2.70;;
39968;SDS011;25648;47.808;19.004;2022-09-09T17:28:53;11.07;;;3.20;;